createdAt,value
2018-12-07T00:00:31.443Z,99.46
2018-12-07T00:03:02.485Z,99.61
2018-12-07T00:05:32.213Z,99.36
2018-12-07T00:08:07.026Z,99.47
2018-12-07T00:10:37.277Z,99.11
2018-12-07T00:13:07.492Z,99.47
2018-12-07T00:15:38.552Z,99.19
2018-12-07T00:18:08.828Z,98.78
2018-12-07T00:20:38.552Z,98.44
2018-12-07T00:23:09.612Z,97.91
2018-12-07T00:25:40.921Z,98.22
2018-12-07T00:28:11.512Z,98.42
2018-12-07T00:30:41.743Z,98.93
2018-12-07T00:33:12.834Z,98.54
2018-12-07T00:35:43.693Z,98.68
2018-12-07T00:38:13.874Z,98.41
2018-12-07T00:40:44.680Z,97.96
2018-12-07T00:43:18.388Z,98.20
2018-12-07T00:45:49.644Z,98.68
2018-12-07T00:48:20.573Z,98.42
2018-12-07T00:50:50.733Z,98.41
2018-12-07T00:53:21.650Z,98.61
2018-12-07T00:55:52.672Z,98.65
2018-12-07T00:58:22.608Z,98.43
2018-12-07T01:00:53.812Z,98.88
2018-12-07T01:03:24.897Z,98.44
2018-12-07T01:05:55.760Z,98.17
2018-12-07T01:08:26.279Z,98.84
2018-12-07T01:10:56.728Z,98.95
2018-12-07T01:13:26.684Z,98.91
2018-12-07T01:15:57.689Z,98.80
2018-12-07T01:18:29.004Z,98.50
2018-12-07T01:20:58.929Z,98.56
2018-12-07T01:23:29.766Z,98.88
2018-12-07T01:25:59.793Z,98.75
2018-12-07T01:28:30.883Z,99.03
2018-12-07T01:31:00.875Z,99.21
2018-12-07T01:33:31.906Z,99.44
2018-12-07T01:36:02.919Z,99.74
2018-12-07T01:38:38.753Z,99.80
2018-12-07T01:41:10.986Z,99.55
2018-12-07T01:43:44.698Z,99.01
2018-12-07T01:46:18.117Z,99.11
2018-12-07T01:48:48.088Z,99.58
2018-12-07T01:51:18.857Z,99.87
2018-12-07T01:53:49.490Z,99.92
2018-12-07T01:56:19.953Z,99.63
2018-12-07T01:58:50.873Z,99.91
2018-12-07T02:01:21.845Z,99.50
2018-12-07T02:03:52.320Z,99.30
2018-12-07T02:06:23.083Z,99.26
2018-12-07T02:08:59.549Z,99.09
2018-12-07T02:11:32.372Z,98.50
2018-12-07T02:14:01.921Z,98.65
2018-12-07T02:16:32.149Z,98.45
2018-12-07T02:19:02.928Z,98.37
2018-12-07T02:21:32.495Z,98.84
2018-12-07T02:24:04.021Z,98.57
2018-12-07T02:26:35.952Z,98.40
2018-12-07T02:29:08.095Z,98.84
2018-12-07T02:31:39.092Z,98.59
2018-12-07T02:34:09.217Z,98.28
2018-12-07T02:36:39.027Z,97.93
2018-12-07T02:39:10.093Z,97.71
2018-12-07T02:41:42.251Z,98.17
2018-12-07T02:44:14.240Z,97.99
2018-12-07T02:46:44.484Z,97.69
2018-12-07T02:49:15.089Z,98.13
2018-12-07T02:51:46.020Z,97.82
2018-12-07T02:54:16.234Z,97.77
2018-12-07T02:56:47.204Z,97.43
2018-12-07T02:59:18.439Z,97.26
2018-12-07T03:01:49.102Z,97.01
2018-12-07T03:04:19.290Z,97.13
2018-12-07T03:06:51.244Z,97.15
2018-12-07T03:09:23.700Z,96.96
2018-12-07T03:11:54.357Z,96.89
2018-12-07T03:14:27.997Z,96.79
2018-12-07T03:17:08.260Z,96.93
2018-12-07T03:19:40.566Z,96.68
2018-12-07T03:22:11.444Z,96.28
2018-12-07T03:24:42.393Z,96.61
2018-12-07T03:27:14.301Z,96.74
2018-12-07T03:29:45.168Z,96.83
2018-12-07T03:32:15.601Z,97.20
2018-12-07T03:34:45.373Z,96.87
2018-12-07T03:37:16.428Z,97.12
2018-12-07T03:39:47.200Z,97.13
2018-12-07T03:42:20.148Z,97.22
2018-12-07T03:44:51.396Z,97.29
2018-12-07T03:47:22.607Z,98.03
2018-12-07T03:49:52.658Z,97.99
2018-12-07T03:52:23.295Z,97.79
2018-12-07T03:54:54.548Z,98.45
2018-12-07T03:57:25.864Z,98.78
2018-12-07T03:59:56.471Z,98.60
2018-12-07T04:02:26.528Z,98.99
2018-12-07T04:04:57.735Z,98.35
2018-12-07T04:07:28.547Z,99.00
2018-12-07T04:09:59.713Z,98.95
2018-12-07T04:12:30.303Z,98.97
2018-12-07T04:15:01.590Z,99.06
2018-12-07T04:17:31.125Z,99.28
2018-12-07T04:20:01.588Z,99.51
2018-12-07T04:22:32.524Z,99.31
2018-12-07T04:25:03.673Z,99.83
2018-12-07T04:27:33.245Z,99.63
2018-12-07T04:30:22.703Z,99.60
2018-12-07T04:32:59.781Z,99.85
2018-12-07T04:35:29.698Z,99.98
2018-12-07T04:38:01.793Z,99.90
2018-12-07T04:40:32.685Z,99.68
2018-12-07T04:43:04.573Z,100.00
2018-12-07T04:45:35.563Z,99.35
2018-12-07T04:48:06.471Z,99.45
2018-12-07T04:50:36.772Z,99.38
2018-12-07T04:53:06.879Z,98.74
2018-12-07T04:55:37.951Z,98.60
2018-12-07T04:58:08.440Z,98.00
2018-12-07T05:00:39.003Z,98.11
2018-12-07T05:03:09.904Z,98.20
2018-12-07T05:05:40.784Z,98.26
2018-12-07T05:08:10.844Z,97.84
2018-12-07T05:10:41.902Z,97.87
2018-12-07T05:13:12.943Z,96.99
2018-12-07T05:15:43.685Z,96.83
2018-12-07T05:18:14.409Z,97.23
2018-12-07T05:20:44.923Z,96.51
2018-12-07T05:23:20.305Z,96.40
2018-12-07T05:25:49.841Z,96.56
2018-12-07T05:28:21.973Z,97.10
2018-12-07T05:30:53.528Z,96.93
2018-12-07T05:33:32.454Z,97.08
2018-12-07T05:36:02.043Z,97.16
2018-12-07T05:38:32.565Z,96.49
2018-12-07T05:41:03.026Z,96.31
2018-12-07T05:43:32.628Z,95.83
2018-12-07T05:46:07.404Z,96.26
2018-12-07T05:48:38.016Z,96.05
2018-12-07T05:51:08.614Z,95.92
2018-12-07T05:53:39.104Z,95.80
2018-12-07T05:56:10.033Z,96.31
2018-12-07T05:58:39.645Z,96.33
2018-12-07T06:01:16.978Z,96.51
2018-12-07T06:03:48.252Z,96.10
2018-12-07T06:06:19.021Z,96.59
2018-12-07T06:08:49.308Z,96.77
2018-12-07T06:11:20.370Z,96.36
2018-12-07T06:13:51.213Z,96.47
2018-12-07T06:16:22.164Z,95.85
2018-12-07T06:18:52.221Z,95.79
2018-12-07T06:21:23.124Z,95.68
2018-12-07T06:23:54.387Z,94.98
2018-12-07T06:26:24.101Z,95.20
2018-12-07T06:28:55.168Z,95.46
2018-12-07T06:31:27.517Z,95.25
2018-12-07T06:33:57.228Z,95.44
2018-12-07T06:36:28.241Z,96.03
2018-12-07T06:38:58.443Z,96.06
2018-12-07T06:41:29.265Z,96.24
2018-12-07T06:43:59.261Z,95.88
2018-12-07T06:46:30.152Z,95.45
2018-12-07T06:49:09.873Z,95.35
2018-12-07T06:51:40.504Z,95.39
2018-12-07T06:54:11.103Z,95.14
2018-12-07T06:56:41.869Z,94.81
2018-12-07T06:59:12.465Z,94.20
2018-12-07T07:01:43.080Z,94.75
2018-12-07T07:04:13.633Z,94.78
2018-12-07T07:06:43.264Z,95.05
2018-12-07T07:09:15.472Z,95.27
2018-12-07T07:11:45.455Z,95.07
2018-12-07T07:14:17.545Z,95.23
2018-12-07T07:16:47.486Z,94.98
2018-12-07T07:19:18.117Z,94.09
2018-12-07T07:21:49.209Z,93.96
2018-12-07T07:24:19.634Z,93.27
2018-12-07T07:26:50.580Z,93.24
2018-12-07T07:29:21.584Z,92.89
2018-12-07T07:31:52.471Z,91.92
2018-12-07T07:34:23.175Z,92.49
2018-12-07T07:36:53.412Z,92.48
2018-12-07T07:39:24.585Z,92.15
2018-12-07T07:41:55.166Z,92.35
2018-12-07T07:44:25.561Z,92.68
2018-12-07T07:46:56.461Z,92.56
2018-12-07T07:49:26.768Z,92.25
2018-12-07T07:51:57.669Z,91.08
2018-12-07T07:54:28.172Z,90.95
2018-12-07T07:56:58.656Z,90.79
2018-12-07T07:59:29.601Z,90.63
2018-12-07T08:02:00.462Z,90.38
2018-12-07T08:04:31.073Z,89.72
2018-12-07T08:07:01.765Z,89.49
2018-12-07T08:09:33.071Z,89.08
2018-12-07T08:12:02.712Z,89.02
2018-12-07T08:14:32.929Z,89.21
2018-12-07T08:17:04.495Z,87.89
2018-12-07T08:19:35.435Z,87.74
2018-12-07T08:22:05.846Z,87.63
2018-12-07T08:24:36.856Z,87.58
2018-12-07T08:27:07.960Z,87.17
2018-12-07T08:29:38.568Z,86.87
2018-12-07T08:32:08.859Z,86.76
2018-12-07T08:34:45.381Z,86.01
2018-12-07T08:37:20.526Z,85.83
2018-12-07T08:39:51.979Z,85.55
2018-12-07T08:42:21.872Z,85.98
2018-12-07T08:44:52.790Z,85.67
2018-12-07T08:47:22.904Z,86.12
2018-12-07T08:49:55.846Z,86.16
2018-12-07T08:52:26.917Z,86.19
2018-12-07T08:55:02.160Z,86.43
2018-12-07T08:57:31.894Z,86.27
2018-12-07T09:00:01.931Z,85.98
2018-12-07T09:02:33.024Z,85.58
2018-12-07T09:05:03.636Z,84.93
2018-12-07T09:07:33.161Z,83.85
2018-12-07T09:10:05.610Z,83.72
2018-12-07T09:12:35.945Z,83.25
2018-12-07T09:15:06.040Z,82.55
2018-12-07T09:17:35.879Z,82.07
2018-12-07T09:20:08.705Z,81.75
2018-12-07T09:22:38.547Z,81.51
2018-12-07T09:25:09.040Z,81.76
2018-12-07T09:27:38.991Z,81.67
2018-12-07T09:30:10.960Z,80.77
2018-12-07T09:32:41.565Z,81.06
2018-12-07T09:35:12.175Z,80.71
2018-12-07T09:37:41.930Z,79.84
2018-12-07T09:40:14.202Z,79.15
2018-12-07T09:42:44.952Z,79.18
2018-12-07T09:45:15.149Z,78.64
2018-12-07T09:47:45.177Z,78.77
2018-12-07T09:50:16.164Z,79.03
2018-12-07T09:52:47.017Z,78.47
2018-12-07T09:55:23.096Z,78.02
2018-12-07T09:57:55.158Z,78.06
2018-12-07T10:00:27.307Z,78.24
2018-12-07T10:02:58.379Z,78.27
2018-12-07T10:05:31.406Z,77.37
2018-12-07T10:08:02.390Z,78.30
2018-12-07T10:10:32.948Z,77.57
2018-12-07T10:13:08.000Z,78.07
2018-12-07T10:15:36.429Z,77.38
2018-12-07T10:18:08.022Z,77.01
2018-12-07T10:20:38.815Z,75.95
2018-12-07T10:23:15.216Z,75.79
2018-12-07T10:25:46.348Z,75.87
2018-12-07T10:28:17.272Z,75.22
2018-12-07T10:30:48.417Z,75.70
2018-12-07T10:33:18.461Z,74.43
2018-12-07T10:35:49.382Z,74.44
2018-12-07T10:38:20.353Z,73.69
2018-12-07T10:40:52.372Z,74.05
2018-12-07T10:43:24.510Z,73.51
2018-12-07T10:45:55.695Z,72.98
2018-12-07T10:48:26.434Z,73.68
2018-12-07T10:50:56.347Z,73.35
2018-12-07T10:53:27.823Z,73.23
2018-12-07T10:55:58.500Z,73.35
2018-12-07T10:58:28.709Z,73.22
2018-12-07T11:01:04.545Z,72.94
2018-12-07T11:03:48.480Z,73.94
2018-12-07T11:06:23.469Z,73.59
2018-12-07T11:09:06.356Z,73.32
2018-12-07T11:11:45.043Z,73.70
2018-12-07T11:14:16.814Z,73.69
2018-12-07T11:16:54.753Z,73.65
2018-12-07T11:19:30.293Z,73.56
2018-12-07T11:22:06.874Z,73.36
2018-12-07T11:24:42.343Z,73.24
2018-12-07T11:27:17.980Z,73.22
2018-12-07T11:29:54.486Z,73.24
2018-12-07T11:32:35.123Z,72.62
2018-12-07T11:35:10.166Z,72.65
2018-12-07T11:37:45.467Z,72.08
2018-12-07T11:40:16.916Z,72.76
2018-12-07T11:42:50.436Z,72.48
2018-12-07T11:45:30.601Z,73.51
2018-12-07T11:48:00.883Z,73.59
2018-12-07T11:50:31.019Z,73.33
2018-12-07T11:53:05.528Z,74.10
2018-12-07T11:55:36.032Z,74.59
2018-12-07T11:58:06.753Z,74.96
2018-12-07T12:00:37.325Z,75.87
2018-12-07T12:03:07.641Z,76.06
2018-12-07T12:05:38.557Z,76.01
2018-12-07T12:08:09.032Z,75.52
2018-12-07T12:10:42.965Z,76.46
2018-12-07T12:13:13.570Z,75.83
2018-12-07T12:15:43.713Z,76.56
2018-12-07T12:18:15.057Z,75.97
2018-12-07T12:20:45.960Z,76.45
2018-12-07T12:23:15.816Z,75.28
2018-12-07T12:25:45.768Z,76.11
2018-12-07T12:28:17.953Z,76.48
2018-12-07T12:30:48.044Z,76.14
2018-12-07T12:33:18.911Z,76.41
2018-12-07T12:35:49.972Z,76.51
2018-12-07T12:38:20.105Z,76.52
2018-12-07T12:40:51.034Z,76.64
2018-12-07T12:43:23.284Z,76.78
2018-12-07T12:45:55.873Z,75.99
2018-12-07T12:48:25.993Z,75.88
2018-12-07T12:50:59.862Z,76.04
2018-12-07T12:53:30.857Z,75.83
2018-12-07T12:56:03.270Z,75.66
2018-12-07T12:58:33.144Z,76.57
2018-12-07T13:01:02.971Z,76.42
2018-12-07T13:03:33.883Z,76.52
2018-12-07T13:06:03.953Z,76.50
2018-12-07T13:08:33.643Z,75.33
2018-12-07T13:11:06.019Z,74.60
2018-12-07T13:13:37.051Z,74.57
2018-12-07T13:16:07.175Z,74.97
2018-12-07T13:18:36.972Z,73.97
2018-12-07T13:21:08.162Z,73.80
2018-12-07T13:23:40.564Z,73.90
2018-12-07T13:26:16.022Z,72.97
2018-12-07T13:28:46.648Z,72.84
2018-12-07T13:31:17.160Z,72.76
2018-12-07T13:33:48.320Z,73.11
2018-12-07T13:36:19.180Z,73.73
2018-12-07T13:38:49.208Z,73.61
2018-12-07T13:41:20.624Z,74.37
2018-12-07T13:43:51.196Z,74.56
2018-12-07T13:46:22.472Z,74.72
2018-12-07T13:48:53.464Z,73.95
2018-12-07T13:51:30.210Z,74.55
2018-12-07T13:54:01.547Z,74.42
2018-12-07T13:56:31.340Z,75.12
2018-12-07T13:59:02.245Z,75.01
2018-12-07T14:01:33.418Z,75.92
2018-12-07T14:04:03.645Z,74.85
2018-12-07T14:06:33.698Z,74.52
2018-12-07T14:09:07.378Z,73.20
2018-12-07T14:11:37.769Z,71.16
2018-12-07T14:14:09.325Z,72.16
2018-12-07T14:16:39.392Z,72.70
2018-12-07T14:19:10.519Z,73.10
2018-12-07T14:21:42.522Z,74.06
2018-12-07T14:24:15.655Z,74.33
2018-12-07T14:26:45.582Z,74.71
2018-12-07T14:29:16.498Z,75.29
2018-12-07T14:31:47.338Z,76.16
2018-12-07T14:34:18.791Z,77.22
2018-12-07T14:36:48.700Z,78.63
2018-12-07T14:39:19.938Z,79.57
2018-12-07T14:41:50.648Z,80.57
2018-12-07T14:44:21.547Z,81.37
2018-12-07T14:46:55.092Z,81.68
2018-12-07T14:49:26.506Z,82.43
2018-12-07T14:51:57.059Z,82.66
2018-12-07T14:54:27.732Z,83.56
2018-12-07T14:56:58.424Z,84.34
2018-12-07T14:59:28.571Z,85.48
2018-12-07T15:01:59.791Z,85.95
2018-12-07T15:04:29.603Z,86.25
2018-12-07T15:06:59.753Z,86.98
2018-12-07T15:09:31.538Z,87.08
2018-12-07T15:12:01.804Z,87.67
2018-12-07T15:14:32.379Z,87.72
2018-12-07T15:17:02.829Z,88.30
2018-12-07T15:19:32.588Z,88.57
2018-12-07T15:22:04.611Z,88.28
2018-12-07T15:24:35.104Z,88.45
2018-12-07T15:27:05.787Z,88.96
2018-12-07T15:29:36.535Z,89.39
2018-12-07T15:32:06.743Z,89.42
2018-12-07T15:34:36.886Z,89.63
2018-12-07T15:37:06.719Z,90.10
2018-12-07T15:39:36.802Z,90.20
2018-12-07T15:42:07.108Z,90.56
2018-12-07T15:44:39.813Z,90.52
2018-12-07T15:47:11.724Z,90.55
2018-12-07T15:49:43.828Z,90.98
2018-12-07T15:52:14.229Z,90.95
2018-12-07T15:54:44.029Z,90.68
2018-12-07T15:57:15.088Z,91.03
2018-12-07T15:59:50.642Z,91.14
2018-12-07T16:02:22.072Z,91.35
2018-12-07T16:04:54.191Z,91.16
2018-12-07T16:07:25.993Z,91.05
2018-12-07T16:09:57.747Z,91.46
2018-12-07T16:12:30.051Z,91.40
2018-12-07T16:15:01.001Z,91.59
2018-12-07T16:17:31.997Z,91.02
2018-12-07T16:20:02.257Z,90.89
2018-12-07T16:22:33.068Z,90.72
2018-12-07T16:25:03.896Z,90.63
2018-12-07T16:27:33.639Z,91.02
2018-12-07T16:30:05.651Z,90.47
2018-12-07T16:32:37.232Z,91.27
2018-12-07T16:35:09.034Z,91.73
2018-12-07T16:37:40.056Z,91.92
2018-12-07T16:40:11.021Z,92.03
2018-12-07T16:42:41.622Z,91.98
2018-12-07T16:45:12.121Z,92.16
2018-12-07T16:47:43.025Z,92.34
2018-12-07T16:50:13.126Z,92.38
2018-12-07T16:52:43.285Z,92.26
2018-12-07T16:55:14.887Z,92.22
2018-12-07T16:57:45.778Z,92.56
2018-12-07T17:00:16.348Z,92.78
2018-12-07T17:02:46.268Z,92.82
2018-12-07T17:05:18.201Z,93.13
2018-12-07T17:07:48.628Z,93.05
2018-12-07T17:10:19.129Z,93.45
2018-12-07T17:12:54.569Z,93.34
2018-12-07T17:15:26.263Z,93.00
2018-12-07T17:17:57.442Z,92.94
2018-12-07T17:20:27.117Z,93.04
2018-12-07T17:22:58.194Z,92.99
2018-12-07T17:25:28.019Z,92.95
2018-12-07T17:27:59.197Z,93.16
2018-12-07T17:30:30.226Z,92.93
2018-12-07T17:33:00.364Z,93.15
2018-12-07T17:35:31.373Z,93.26
2018-12-07T17:38:01.439Z,93.16
2018-12-07T17:40:32.354Z,93.44
2018-12-07T17:43:03.408Z,93.95
2018-12-07T17:45:33.927Z,94.19
2018-12-07T17:48:04.708Z,94.56
2018-12-07T17:50:34.370Z,94.95
2018-12-07T17:53:05.701Z,94.98
2018-12-07T17:55:37.125Z,95.21
2018-12-07T17:58:07.368Z,95.44
2018-12-07T18:00:37.348Z,95.30
2018-12-07T18:03:09.371Z,95.36
2018-12-07T18:05:41.289Z,95.01
2018-12-07T18:08:13.584Z,95.19
2018-12-07T18:10:44.621Z,95.15
2018-12-07T18:13:14.456Z,94.88
2018-12-07T18:15:46.333Z,94.82
2018-12-07T18:18:16.952Z,94.89
2018-12-07T18:20:49.329Z,94.39
2018-12-07T18:23:21.834Z,94.39
2018-12-07T18:25:59.511Z,94.28
2018-12-07T18:28:32.212Z,94.14
2018-12-07T18:31:03.456Z,94.28
2018-12-07T18:33:34.424Z,93.98
2018-12-07T18:36:05.765Z,93.89
2018-12-07T18:38:37.684Z,94.08
2018-12-07T18:41:09.688Z,93.77
2018-12-07T18:43:41.636Z,93.64
2018-12-07T18:46:13.514Z,93.37
2018-12-07T18:48:44.774Z,93.34
2018-12-07T18:51:15.477Z,93.45
2018-12-07T18:53:45.717Z,93.62
2018-12-07T18:56:19.676Z,93.71
2018-12-07T18:58:50.653Z,93.54
2018-12-07T19:01:21.431Z,93.56
2018-12-07T19:03:54.365Z,93.71
2018-12-07T19:06:25.789Z,93.72
2018-12-07T19:08:56.791Z,93.98
2018-12-07T19:11:27.992Z,94.12
2018-12-07T19:13:58.932Z,93.77
2018-12-07T19:16:28.833Z,93.57
2018-12-07T19:19:01.763Z,93.65
2018-12-07T19:21:33.818Z,93.95
2018-12-07T19:24:07.072Z,93.45
2018-12-07T19:26:39.811Z,93.04
2018-12-07T19:29:10.766Z,93.46
2018-12-07T19:31:47.838Z,93.77
2018-12-07T19:34:19.118Z,93.69
2018-12-07T19:36:50.246Z,93.91
2018-12-07T19:39:22.889Z,94.24
2018-12-07T19:41:54.089Z,94.49
2018-12-07T19:44:24.899Z,94.28
2018-12-07T19:46:57.110Z,94.30
2018-12-07T19:49:29.105Z,94.38
2018-12-07T19:54:49.656Z,93.68
2018-12-07T19:57:20.252Z,94.06
2018-12-07T19:59:49.980Z,94.52
2018-12-07T20:02:26.745Z,94.46
2018-12-07T20:04:57.212Z,94.40
2018-12-07T20:07:28.190Z,94.42
2018-12-07T20:09:58.848Z,94.64
2018-12-07T20:12:30.180Z,94.29
2018-12-07T20:15:01.019Z,94.49
2018-12-07T20:17:31.261Z,94.59
2018-12-07T20:20:02.261Z,94.52
2018-12-07T20:22:33.340Z,94.84
2018-12-07T20:25:04.593Z,94.74
2018-12-07T20:27:34.556Z,94.42
2018-12-07T20:30:07.786Z,94.81
2018-12-07T20:32:39.016Z,94.94
2018-12-07T20:35:09.245Z,95.10
2018-12-07T20:37:40.311Z,94.95
2018-12-07T20:40:10.357Z,95.02
2018-12-07T20:42:40.374Z,94.94
2018-12-07T20:45:11.399Z,95.00
2018-12-07T20:47:43.220Z,94.81
2018-12-07T20:50:16.234Z,94.75
2018-12-07T20:52:46.237Z,94.66
2018-12-07T20:55:17.257Z,94.62
2018-12-07T20:57:48.430Z,94.32
2018-12-07T21:00:18.123Z,94.42
2018-12-07T21:02:49.039Z,94.67
2018-12-07T21:07:37.561Z,94.84
2018-12-07T21:11:00.818Z,94.62
2018-12-07T21:14:35.648Z,95.19
2018-12-07T21:20:08.655Z,96.11
2018-12-07T21:22:40.249Z,96.10
2018-12-07T21:25:11.367Z,96.53
2018-12-07T21:27:43.678Z,96.03
2018-12-07T21:30:54.036Z,95.76
2018-12-07T21:33:36.227Z,95.89
2018-12-07T21:36:50.032Z,96.11
2018-12-07T21:39:32.789Z,96.17
2018-12-07T21:42:03.360Z,96.41
2018-12-07T21:44:35.055Z,96.73
2018-12-07T21:47:04.716Z,97.19
2018-12-07T21:49:54.029Z,96.20
2018-12-07T21:52:28.544Z,96.16
2018-12-07T21:55:00.438Z,96.42
2018-12-07T21:57:31.408Z,95.90
2018-12-07T22:00:02.681Z,96.08
2018-12-07T22:02:33.424Z,96.90
2018-12-07T22:05:03.864Z,97.13
2018-12-07T22:07:33.932Z,97.08
2018-12-07T22:10:08.807Z,96.66
2018-12-07T22:12:40.515Z,97.43
2018-12-07T22:15:12.650Z,97.52
2018-12-07T22:17:43.368Z,97.47
2018-12-07T22:20:14.501Z,97.51
2018-12-07T22:22:45.947Z,97.31
2018-12-07T22:25:16.492Z,96.98
2018-12-07T22:27:46.603Z,96.89
2018-12-07T22:30:17.342Z,97.35
2018-12-07T22:32:47.959Z,97.10
2018-12-07T22:35:18.738Z,96.84
2018-12-07T22:37:49.117Z,96.12
2018-12-07T22:40:19.736Z,96.12
2018-12-07T22:42:50.468Z,96.27
2018-12-07T22:45:21.163Z,96.41
2018-12-07T22:47:51.751Z,96.28
2018-12-07T22:50:22.235Z,96.44
2018-12-07T22:52:52.538Z,96.87
2018-12-07T22:55:23.475Z,96.55
2018-12-07T22:57:53.567Z,96.10
2018-12-07T23:00:24.809Z,96.46
2018-12-07T23:02:55.830Z,97.16
2018-12-07T23:05:26.449Z,97.14
2018-12-07T23:07:56.640Z,97.56
2018-12-07T23:10:27.748Z,97.86
2018-12-07T23:12:58.804Z,97.53
2018-12-07T23:15:32.521Z,97.49
2018-12-07T23:18:04.859Z,97.63
2018-12-07T23:20:34.477Z,97.87
2018-12-07T23:23:04.665Z,97.95
2018-12-07T23:25:34.271Z,98.57
2018-12-07T23:28:03.796Z,98.56
2018-12-07T23:30:33.820Z,99.34
2018-12-07T23:33:04.991Z,99.42
2018-12-07T23:35:34.540Z,99.98
2018-12-07T23:38:05.012Z,100.00
2018-12-07T23:40:35.009Z,99.83
2018-12-07T23:43:09.717Z,100.00
2018-12-07T23:45:42.196Z,100.00
2018-12-07T23:48:11.777Z,100.00
2018-12-07T23:50:41.969Z,100.00
2018-12-07T23:53:12.936Z,100.00
2018-12-07T23:55:44.028Z,100.00
2018-12-07T23:58:13.853Z,100.00
